sensor_id;sensor_type;location;lat;lon;timestamp;pressure;altitude;pressure_sealevel;temperature;humidity
1480;BME280;732;51.698;4.886;2023-02-23T12:47:29;101676.53;;;10.48;100.00
1480;BME280;732;51.698;4.886;2023-02-23T12:50:03;101689.69;;;9.12;100.00
1480;BME280;732;51.698;4.886;2023-02-23T12:52:45;101682.53;;;8.68;100.00
1480;BME280;732;51.698;4.886;2023-02-23T12:55:23;101686.06;;;8.33;100.00
1480;BME280;732;51.698;4.886;2023-02-23T12:58:02;101708.16;;;8.08;100.00
1480;BME280;732;51.698;4.886;2023-02-23T13:00:43;101691.78;;;7.84;100.00
1480;BME280;732;51.698;4.886;2023-02-23T13:03:48;101689.38;;;7.31;100.00
1480;BME280;732;51.698;4.886;2023-02-23T13:06:28;101729.03;;;7.15;100.00
1480;BME280;732;51.698;4.886;2023-02-23T13:09:24;101730.13;;;7.21;100.00
1480;BME280;732;51.698;4.886;2023-02-23T13:12:18;101715.00;;;7.41;100.00
1480;BME280;732;51.698;4.886;2023-02-23T13:14:58;101733.13;;;7.65;100.00
1480;BME280;732;51.698;4.886;2023-02-23T13:17:37;101740.22;;;7.39;100.00
1480;BME280;732;51.698;4.886;2023-02-23T13:20:17;101734.03;;;7.35;100.00
1480;BME280;732;51.698;4.886;2023-02-23T13:22:53;101703.16;;;6.96;100.00
1480;BME280;732;51.698;4.886;2023-02-23T13:25:33;101709.25;;;6.95;100.00
1480;BME280;732;51.698;4.886;2023-02-23T13:28:05;101739.31;;;7.09;100.00
1480;BME280;732;51.698;4.886;2023-02-23T13:30:41;101706.69;;;6.96;100.00
1480;BME280;732;51.698;4.886;2023-02-23T13:33:24;101684.34;;;6.79;100.00
1480;BME280;732;51.698;4.886;2023-02-23T13:36:07;101726.72;;;6.96;100.00
1480;BME280;732;51.698;4.886;2023-02-23T13:38:42;101707.22;;;6.86;100.00
1480;BME280;732;51.698;4.886;2023-02-23T13:41:28;101732.44;;;7.12;100.00
1480;BME280;732;51.698;4.886;2023-02-23T13:44:07;101681.53;;;7.01;100.00
1480;BME280;732;51.698;4.886;2023-02-23T13:46:44;101706.59;;;7.21;100.00
1480;BME280;732;51.698;4.886;2023-02-23T13:49:31;101721.91;;;7.39;100.00
1480;BME280;732;51.698;4.886;2023-02-23T13:52:14;101732.03;;;7.57;100.00
1480;BME280;732;51.698;4.886;2023-02-23T13:54:53;101731.34;;;7.95;100.00
1480;BME280;732;51.698;4.886;2023-02-23T13:57:23;101725.69;;;8.11;100.00
1480;BME280;732;51.698;4.886;2023-02-23T13:59:53;101728.72;;;7.93;100.00
1480;BME280;732;51.698;4.886;2023-02-23T14:02:33;101691.06;;;7.59;100.00
1480;BME280;732;51.698;4.886;2023-02-23T14:05:06;101734.38;;;8.10;100.00
1480;BME280;732;51.698;4.886;2023-02-23T14:07:45;101726.63;;;8.47;100.00
1480;BME280;732;51.698;4.886;2023-02-23T14:10:19;101725.38;;;8.67;100.00
1480;BME280;732;51.698;4.886;2023-02-23T14:13:28;101718.97;;;8.56;100.00
1480;BME280;732;51.698;4.886;2023-02-23T14:16:16;101693.56;;;8.18;100.00
1480;BME280;732;51.698;4.886;2023-02-23T14:21:50;101704.72;;;7.78;100.00
1480;BME280;732;51.698;4.886;2023-02-23T14:24:26;101694.56;;;7.89;100.00
1480;BME280;732;51.698;4.886;2023-02-23T14:27:22;101727.69;;;7.57;100.00
1480;BME280;732;51.698;4.886;2023-02-23T14:30:19;101728.59;;;7.59;100.00
1480;BME280;732;51.698;4.886;2023-02-23T14:32:51;101737.97;;;7.81;100.00
1480;BME280;732;51.698;4.886;2023-02-23T14:35:43;101697.03;;;7.53;100.00
1480;BME280;732;51.698;4.886;2023-02-23T14:38:28;101715.13;;;7.75;100.00
1480;BME280;732;51.698;4.886;2023-02-23T14:41:20;101728.53;;;7.87;100.00
1480;BME280;732;51.698;4.886;2023-02-23T14:43:52;101718.13;;;7.89;100.00
1480;BME280;732;51.698;4.886;2023-02-23T14:46:23;101702.41;;;7.89;100.00
1480;BME280;732;51.698;4.886;2023-02-23T14:48:58;101724.41;;;7.95;100.00
1480;BME280;732;51.698;4.886;2023-02-23T14:51:36;101728.50;;;7.56;100.00
1480;BME280;732;51.698;4.886;2023-02-23T14:54:20;101736.41;;;7.28;100.00
1480;BME280;732;51.698;4.886;2023-02-23T14:56:53;101729.03;;;7.15;100.00
1480;BME280;732;51.698;4.886;2023-02-23T14:59:27;101730.28;;;7.27;100.00
1480;BME280;732;51.698;4.886;2023-02-23T15:01:59;101713.22;;;7.40;100.00
1480;BME280;732;51.698;4.886;2023-02-23T15:04:29;101729.16;;;7.47;100.00
1480;BME280;732;51.698;4.886;2023-02-23T15:06:59;101713.28;;;7.41;100.00
1480;BME280;732;51.698;4.886;2023-02-23T15:09:33;101700.63;;;7.27;100.00
1480;BME280;732;51.698;4.886;2023-02-23T15:12:13;101701.56;;;7.29;100.00
1480;BME280;732;51.698;4.886;2023-02-23T15:14:44;101705.31;;;7.09;100.00
1480;BME280;732;51.698;4.886;2023-02-23T15:17:18;101715.19;;;7.17;100.00
1480;BME280;732;51.698;4.886;2023-02-23T15:19:52;101703.06;;;7.21;100.00
1480;BME280;732;51.698;4.886;2023-02-23T15:22:40;101724.06;;;7.53;100.00
1480;BME280;732;51.698;4.886;2023-02-23T15:25:15;101736.97;;;7.76;100.00
1480;BME280;732;51.698;4.886;2023-02-23T15:27:48;101731.66;;;8.05;100.00
1480;BME280;732;51.698;4.886;2023-02-23T15:30:26;101688.97;;;7.77;100.00
1480;BME280;732;51.698;4.886;2023-02-23T15:33:01;101692.06;;;7.64;100.00
1480;BME280;732;51.698;4.886;2023-02-23T15:35:35;101717.03;;;7.81;100.00
1480;BME280;732;51.698;4.886;2023-02-23T15:38:15;101734.31;;;7.46;100.00
1480;BME280;732;51.698;4.886;2023-02-23T15:41:19;101745.38;;;7.36;100.00
1480;BME280;732;51.698;4.886;2023-02-23T15:44:00;101684.66;;;6.90;100.00
1480;BME280;732;51.698;4.886;2023-02-23T15:46:30;101745.47;;;7.39;100.00
1480;BME280;732;51.698;4.886;2023-02-23T15:49:00;101744.41;;;7.32;100.00
1480;BME280;732;51.698;4.886;2023-02-23T15:51:35;101701.75;;;7.07;100.00
1480;BME280;732;51.698;4.886;2023-02-23T15:54:15;101743.97;;;7.47;100.00
1480;BME280;732;51.698;4.886;2023-02-23T15:56:48;101752.16;;;7.29;100.00
1480;BME280;732;51.698;4.886;2023-02-23T15:59:26;101754.16;;;7.38;100.00
1480;BME280;732;51.698;4.886;2023-02-23T16:01:57;101748.88;;;7.08;100.00
1480;BME280;732;51.698;4.886;2023-02-23T16:04:30;101717.59;;;7.11;100.00
1480;BME280;732;51.698;4.886;2023-02-23T16:07:16;101725.06;;;6.99;100.00
1480;BME280;732;51.698;4.886;2023-02-23T16:09:51;101754.16;;;7.38;100.00
1480;BME280;732;51.698;4.886;2023-02-23T16:12:23;101762.38;;;7.22;100.00
1480;BME280;732;51.698;4.886;2023-02-23T16:15:00;101742.88;;;7.11;100.00
1480;BME280;732;51.698;4.886;2023-02-23T16:17:39;101760.63;;;7.21;100.00
1480;BME280;732;51.698;4.886;2023-02-23T16:20:16;101744.78;;;7.16;100.00
1480;BME280;732;51.698;4.886;2023-02-23T16:22:49;101760.88;;;7.00;100.00
1480;BME280;732;51.698;4.886;2023-02-23T16:25:21;101729.50;;;6.74;100.00
1480;BME280;732;51.698;4.886;2023-02-23T16:27:58;101762.56;;;6.72;100.00
1480;BME280;732;51.698;4.886;2023-02-23T16:30:40;101768.56;;;6.69;100.00
1480;BME280;732;51.698;4.886;2023-02-23T16:33:15;101764.84;;;6.61;100.00
1480;BME280;732;51.698;4.886;2023-02-23T16:35:48;101745.31;;;6.25;100.00
1480;BME280;732;51.698;4.886;2023-02-23T16:38:23;101742.97;;;6.09;100.00
1480;BME280;732;51.698;4.886;2023-02-23T16:40:52;101737.34;;;5.97;100.00
1480;BME280;732;51.698;4.886;2023-02-23T16:43:21;101792.50;;;6.06;100.00
1480;BME280;732;51.698;4.886;2023-02-23T16:45:51;101757.28;;;5.47;100.00
1480;BME280;732;51.698;4.886;2023-02-23T16:48:20;101799.31;;;5.55;100.00
1480;BME280;732;51.698;4.886;2023-02-23T16:50:50;101793.16;;;5.53;100.00
1480;BME280;732;51.698;4.886;2023-02-23T16:53:18;101813.59;;;5.41;100.00
1480;BME280;732;51.698;4.886;2023-02-23T16:55:52;101764.56;;;5.10;100.00
1480;BME280;732;51.698;4.886;2023-02-23T16:58:23;101809.13;;;5.38;100.00
1480;BME280;732;51.698;4.886;2023-02-23T17:00:54;101780.84;;;5.27;100.00
1480;BME280;732;51.698;4.886;2023-02-23T17:03:25;101798.59;;;5.59;100.00
1480;BME280;732;51.698;4.886;2023-02-23T17:05:54;101805.19;;;5.49;100.00
1480;BME280;732;51.698;4.886;2023-02-23T17:08:23;101767.69;;;5.24;100.00
1480;BME280;732;51.698;4.886;2023-02-23T17:10:53;101816.34;;;5.23;100.00
1480;BME280;732;51.698;4.886;2023-02-23T17:13:25;101817.25;;;4.81;100.00
1480;BME280;732;51.698;4.886;2023-02-23T17:15:56;101798.22;;;4.61;100.00
1480;BME280;732;51.698;4.886;2023-02-23T17:18:27;101793.69;;;4.57;100.00
1480;BME280;732;51.698;4.886;2023-02-23T17:20:59;101827.69;;;4.60;100.00
1480;BME280;732;51.698;4.886;2023-02-23T17:23:30;101802.72;;;4.45;100.00
1480;BME280;732;51.698;4.886;2023-02-23T17:26:10;101833.66;;;4.79;100.00
1480;BME280;732;51.698;4.886;2023-02-23T17:28:40;101813.25;;;4.68;100.00
1480;BME280;732;51.698;4.886;2023-02-23T17:31:10;101836.84;;;4.72;100.00
1480;BME280;732;51.698;4.886;2023-02-23T17:33:39;101786.09;;;4.22;100.00
1480;BME280;732;51.698;4.886;2023-02-23T17:36:11;101816.50;;;4.42;100.00
1480;BME280;732;51.698;4.886;2023-02-23T17:38:41;101835.16;;;4.53;100.00
1480;BME280;732;51.698;4.886;2023-02-23T17:41:15;101852.16;;;4.64;100.00
1480;BME280;732;51.698;4.886;2023-02-23T17:43:44;101855.94;;;4.51;100.00
1480;BME280;732;51.698;4.886;2023-02-23T17:46:15;101854.50;;;4.58;100.00
1480;BME280;732;51.698;4.886;2023-02-23T17:48:43;101849.72;;;4.68;100.00
1480;BME280;732;51.698;4.886;2023-02-23T17:51:14;101851.22;;;4.83;100.00
1480;BME280;732;51.698;4.886;2023-02-23T17:53:45;101817.41;;;4.43;100.00
1480;BME280;732;51.698;4.886;2023-02-23T17:56:14;101849.09;;;4.53;100.00
1480;BME280;732;51.698;4.886;2023-02-23T17:58:44;101862.28;;;4.56;100.00
1480;BME280;732;51.698;4.886;2023-02-23T18:01:14;101825.34;;;4.27;100.00
1480;BME280;732;51.698;4.886;2023-02-23T18:03:44;101867.28;;;4.52;100.00
1480;BME280;732;51.698;4.886;2023-02-23T18:06:14;101844.13;;;4.20;100.00
1480;BME280;732;51.698;4.886;2023-02-23T18:08:43;101872.91;;;4.42;100.00
1480;BME280;732;51.698;4.886;2023-02-23T18:11:12;101876.34;;;4.41;100.00
1480;BME280;732;51.698;4.886;2023-02-23T18:13:44;101852.00;;;4.21;100.00
1480;BME280;732;51.698;4.886;2023-02-23T18:16:17;101857.50;;;4.08;100.00
1480;BME280;732;51.698;4.886;2023-02-23T18:18:47;101879.50;;;4.15;100.00
1480;BME280;732;51.698;4.886;2023-02-23T18:21:19;101880.56;;;4.20;100.00
1480;BME280;732;51.698;4.886;2023-02-23T18:23:49;101876.06;;;4.35;100.00
1480;BME280;732;51.698;4.886;2023-02-23T18:26:20;101870.03;;;4.17;100.00
1480;BME280;732;51.698;4.886;2023-02-23T18:28:49;101867.44;;;4.17;100.00
1480;BME280;732;51.698;4.886;2023-02-23T18:31:22;101878.22;;;4.24;100.00
1480;BME280;732;51.698;4.886;2023-02-23T18:33:52;101887.44;;;4.37;100.00
1480;BME280;732;51.698;4.886;2023-02-23T18:36:22;101860.38;;;4.14;100.00
1480;BME280;732;51.698;4.886;2023-02-23T18:38:52;101858.69;;;4.34;100.00
1480;BME280;732;51.698;4.886;2023-02-23T18:41:21;101884.84;;;4.37;100.00
1480;BME280;732;51.698;4.886;2023-02-23T18:43:50;101882.84;;;4.12;100.00
1480;BME280;732;51.698;4.886;2023-02-23T18:46:20;101849.06;;;3.95;100.00
1480;BME280;732;51.698;4.886;2023-02-23T18:48:50;101848.31;;;3.78;100.00
1480;BME280;732;51.698;4.886;2023-02-23T18:51:19;101859.28;;;3.90;100.00
1480;BME280;732;51.698;4.886;2023-02-23T18:53:49;101907.28;;;4.16;100.00
1480;BME280;732;51.698;4.886;2023-02-23T18:56:20;101849.09;;;3.76;100.00
1480;BME280;732;51.698;4.886;2023-02-23T18:58:50;101864.25;;;3.86;100.00
1480;BME280;732;51.698;4.886;2023-02-23T19:01:22;101909.56;;;4.08;100.00
1480;BME280;732;51.698;4.886;2023-02-23T19:03:52;101880.03;;;3.89;100.00
1480;BME280;732;51.698;4.886;2023-02-23T19:06:22;101867.06;;;3.71;100.00
1480;BME280;732;51.698;4.886;2023-02-23T19:08:53;101904.00;;;4.01;100.00
1480;BME280;732;51.698;4.886;2023-02-23T19:11:25;101909.38;;;4.04;100.00
1480;BME280;732;51.698;4.886;2023-02-23T19:13:56;101878.78;;;3.81;100.00
1480;BME280;732;51.698;4.886;2023-02-23T19:16:28;101893.47;;;3.98;100.00
1480;BME280;732;51.698;4.886;2023-02-23T19:18:58;101856.75;;;3.92;100.00
1480;BME280;732;51.698;4.886;2023-02-23T19:21:28;101897.03;;;4.38;100.00
1480;BME280;732;51.698;4.886;2023-02-23T19:23:58;101862.41;;;4.02;100.00
1480;BME280;732;51.698;4.886;2023-02-23T19:26:30;101843.59;;;3.69;100.00
1480;BME280;732;51.698;4.886;2023-02-23T19:29:00;101899.91;;;4.06;100.00
1480;BME280;732;51.698;4.886;2023-02-23T19:31:30;101894.00;;;4.10;100.00
1480;BME280;732;51.698;4.886;2023-02-23T19:33:58;101898.66;;;3.98;100.00
1480;BME280;732;51.698;4.886;2023-02-23T19:36:29;101902.22;;;4.00;100.00
1480;BME280;732;51.698;4.886;2023-02-23T19:39:02;101907.81;;;3.90;100.00
1480;BME280;732;51.698;4.886;2023-02-23T19:41:38;101878.69;;;3.60;100.00
1480;BME280;732;51.698;4.886;2023-02-23T19:44:07;101843.84;;;3.56;100.00
1480;BME280;732;51.698;4.886;2023-02-23T19:46:38;101860.28;;;3.74;100.00
1480;BME280;732;51.698;4.886;2023-02-23T19:49:09;101857.41;;;3.88;100.00
1480;BME280;732;51.698;4.886;2023-02-23T19:51:40;101889.78;;;3.93;100.00
1480;BME280;732;51.698;4.886;2023-02-23T19:54:10;101889.56;;;3.88;100.00
1480;BME280;732;51.698;4.886;2023-02-23T19:56:39;101881.75;;;3.88;100.00
1480;BME280;732;51.698;4.886;2023-02-23T19:59:07;101887.16;;;3.73;100.00
1480;BME280;732;51.698;4.886;2023-02-23T20:01:37;101869.81;;;3.55;100.00
1480;BME280;732;51.698;4.886;2023-02-23T20:04:06;101889.31;;;3.64;100.00
1480;BME280;732;51.698;4.886;2023-02-23T20:06:40;101844.97;;;3.44;100.00
1480;BME280;732;51.698;4.886;2023-02-23T20:09:11;101883.72;;;3.74;100.00
1480;BME280;732;51.698;4.886;2023-02-23T20:11:40;101856.09;;;3.40;100.00
1480;BME280;732;51.698;4.886;2023-02-23T20:14:09;101886.38;;;3.57;100.00
1480;BME280;732;51.698;4.886;2023-02-23T20:16:40;101882.56;;;3.68;100.00
1480;BME280;732;51.698;4.886;2023-02-23T20:19:09;101885.81;;;3.64;100.00
1480;BME280;732;51.698;4.886;2023-02-23T20:21:38;101829.97;;;3.19;100.00
1480;BME280;732;51.698;4.886;2023-02-23T20:24:08;101892.91;;;3.49;100.00
1480;BME280;732;51.698;4.886;2023-02-23T20:26:38;101858.16;;;3.29;100.00
1480;BME280;732;51.698;4.886;2023-02-23T20:29:10;101893.75;;;3.30;100.00
1480;BME280;732;51.698;4.886;2023-02-23T20:31:48;101886.44;;;3.41;100.00
1480;BME280;732;51.698;4.886;2023-02-23T20:34:21;101892.25;;;3.35;100.00
1480;BME280;732;51.698;4.886;2023-02-23T20:36:50;101829.28;;;2.88;100.00
1480;BME280;732;51.698;4.886;2023-02-23T20:39:20;101837.69;;;2.83;100.00
1480;BME280;732;51.698;4.886;2023-02-23T20:41:49;101827.66;;;2.72;100.00
1480;BME280;732;51.698;4.886;2023-02-23T20:44:22;101843.91;;;2.86;100.00
1480;BME280;732;51.698;4.886;2023-02-23T20:46:52;101888.25;;;3.07;100.00
1480;BME280;732;51.698;4.886;2023-02-23T20:49:21;101883.13;;;3.08;100.00
1480;BME280;732;51.698;4.886;2023-02-23T20:51:50;101881.22;;;3.04;100.00
1480;BME280;732;51.698;4.886;2023-02-23T20:54:19;101882.25;;;3.08;100.00
1480;BME280;732;51.698;4.886;2023-02-23T20:56:48;101876.97;;;3.06;100.00
1480;BME280;732;51.698;4.886;2023-02-23T20:59:25;101874.81;;;2.98;100.00
1480;BME280;732;51.698;4.886;2023-02-23T21:01:58;101868.56;;;2.94;100.00
1480;BME280;732;51.698;4.886;2023-02-23T21:04:30;101831.44;;;2.44;100.00
1480;BME280;732;51.698;4.886;2023-02-23T21:07:01;101869.00;;;2.68;100.00
1480;BME280;732;51.698;4.886;2023-02-23T21:09:33;101876.19;;;2.73;100.00
1480;BME280;732;51.698;4.886;2023-02-23T21:12:01;101872.63;;;2.71;100.00
1480;BME280;732;51.698;4.886;2023-02-23T21:14:30;101847.97;;;2.46;100.00
1480;BME280;732;51.698;4.886;2023-02-23T21:17:02;101867.56;;;2.57;100.00
1480;BME280;732;51.698;4.886;2023-02-23T21:19:31;101851.00;;;2.21;100.00
1480;BME280;732;51.698;4.886;2023-02-23T21:22:00;101876.28;;;2.41;100.00
1480;BME280;732;51.698;4.886;2023-02-23T21:24:28;101847.91;;;2.28;100.00
1480;BME280;732;51.698;4.886;2023-02-23T21:27:00;101846.81;;;2.23;100.00
1480;BME280;732;51.698;4.886;2023-02-23T21:29:31;101855.16;;;2.18;100.00
1480;BME280;732;51.698;4.886;2023-02-23T21:31:59;101852.56;;;2.18;100.00
1480;BME280;732;51.698;4.886;2023-02-23T21:34:29;101869.50;;;2.11;100.00
1480;BME280;732;51.698;4.886;2023-02-23T21:36:58;101876.97;;;2.05;100.00
1480;BME280;732;51.698;4.886;2023-02-23T21:39:27;101868.59;;;2.11;100.00
1480;BME280;732;51.698;4.886;2023-02-23T21:41:56;101871.06;;;2.08;100.00
1480;BME280;732;51.698;4.886;2023-02-23T21:44:24;101858.97;;;1.92;100.00
1480;BME280;732;51.698;4.886;2023-02-23T21:46:52;101871.28;;;1.96;100.00
1480;BME280;732;51.698;4.886;2023-02-23T21:49:21;101867.50;;;1.90;100.00
1480;BME280;732;51.698;4.886;2023-02-23T21:51:51;101877.09;;;1.76;100.00
1480;BME280;732;51.698;4.886;2023-02-23T21:54:21;101813.59;;;1.37;100.00
1480;BME280;732;51.698;4.886;2023-02-23T21:56:49;101853.09;;;1.48;100.00
1480;BME280;732;51.698;4.886;2023-02-23T21:59:18;101873.19;;;1.52;100.00
1480;BME280;732;51.698;4.886;2023-02-23T22:01:46;101883.56;;;1.37;100.00
1480;BME280;732;51.698;4.886;2023-02-23T22:04:15;101890.50;;;1.22;100.00
1480;BME280;732;51.698;4.886;2023-02-23T22:06:44;101894.47;;;1.16;100.00
1480;BME280;732;51.698;4.886;2023-02-23T22:09:14;101839.28;;;1.02;100.00
1480;BME280;732;51.698;4.886;2023-02-23T22:11:45;101897.78;;;1.44;100.00
1480;BME280;732;51.698;4.886;2023-02-23T22:14:14;101866.25;;;1.36;100.00
1480;BME280;732;51.698;4.886;2023-02-23T22:16:45;101858.97;;;1.45;100.00
1480;BME280;732;51.698;4.886;2023-02-23T22:19:16;101858.41;;;1.35;100.00
1480;BME280;732;51.698;4.886;2023-02-23T22:21:48;101896.09;;;1.30;100.00
1480;BME280;732;51.698;4.886;2023-02-23T22:24:18;101895.88;;;1.25;100.00
1480;BME280;732;51.698;4.886;2023-02-23T22:26:47;101857.06;;;0.96;100.00
1480;BME280;732;51.698;4.886;2023-02-23T22:29:22;101858.03;;;0.98;100.00
1480;BME280;732;51.698;4.886;2023-02-23T22:31:50;101867.56;;;1.14;100.00
1480;BME280;732;51.698;4.886;2023-02-23T22:34:20;101846.84;;;1.14;100.00
1480;BME280;732;51.698;4.886;2023-02-23T22:36:49;101845.78;;;1.10;100.00
1480;BME280;732;51.698;4.886;2023-02-23T22:39:18;101830.16;;;1.09;100.00
1480;BME280;732;51.698;4.886;2023-02-23T22:41:48;101874.66;;;1.32;100.00
1480;BME280;732;51.698;4.886;2023-02-23T22:44:19;101864.97;;;1.14;100.00
1480;BME280;732;51.698;4.886;2023-02-23T22:46:48;101847.41;;;1.08;100.00
1480;BME280;732;51.698;4.886;2023-02-23T22:49:18;101817.81;;;0.74;100.00
1480;BME280;732;51.698;4.886;2023-02-23T22:51:48;101867.41;;;1.11;100.00
1480;BME280;732;51.698;4.886;2023-02-23T22:54:18;101863.22;;;0.98;100.00
1480;BME280;732;51.698;4.886;2023-02-23T22:56:50;101858.59;;;0.93;100.00
1480;BME280;732;51.698;4.886;2023-02-23T22:59:18;101869.38;;;1.00;100.00
1480;BME280;732;51.698;4.886;2023-02-23T23:01:47;101844.31;;;0.99;100.00
1480;BME280;732;51.698;4.886;2023-02-23T23:04:16;101862.03;;;1.08;100.00
1480;BME280;732;51.698;4.886;2023-02-23T23:06:50;101859.03;;;1.00;100.00
1480;BME280;732;51.698;4.886;2023-02-23T23:09:20;101830.41;;;0.82;100.00
1480;BME280;732;51.698;4.886;2023-02-23T23:11:48;101821.81;;;0.83;100.00
1480;BME280;732;51.698;4.886;2023-02-23T23:14:17;101850.91;;;1.09;100.00
1480;BME280;732;51.698;4.886;2023-02-23T23:16:46;101845.50;;;1.20;100.00
1480;BME280;732;51.698;4.886;2023-02-23T23:19:21;101787.50;;;0.71;100.00
1480;BME280;732;51.698;4.886;2023-02-23T23:21:53;101831.34;;;0.99;100.00
1480;BME280;732;51.698;4.886;2023-02-23T23:24:24;101831.78;;;1.07;100.00
1480;BME280;732;51.698;4.886;2023-02-23T23:26:53;101800.75;;;0.77;100.00
1480;BME280;732;51.698;4.886;2023-02-23T23:29:27;101825.81;;;0.93;100.00
1480;BME280;732;51.698;4.886;2023-02-23T23:31:56;101821.22;;;0.73;100.00
1480;BME280;732;51.698;4.886;2023-02-23T23:34:27;101833.66;;;0.64;100.00
1480;BME280;732;51.698;4.886;2023-02-23T23:37:00;101825.88;;;0.64;100.00
1480;BME280;732;51.698;4.886;2023-02-23T23:39:30;101791.00;;;0.43;100.00
1480;BME280;732;51.698;4.886;2023-02-23T23:41:58;101823.72;;;0.71;100.00
1480;BME280;732;51.698;4.886;2023-02-23T23:44:28;101817.81;;;0.74;100.00
1480;BME280;732;51.698;4.886;2023-02-23T23:46:57;101792.84;;;0.74;100.00
1480;BME280;732;51.698;4.886;2023-02-23T23:49:25;101791.38;;;0.79;100.00
1480;BME280;732;51.698;4.886;2023-02-23T23:51:55;101737.06;;;0.65;100.00
1480;BME280;732;51.698;4.886;2023-02-23T23:54:26;101801.25;;;1.01;100.00
1480;BME280;732;51.698;4.886;2023-02-23T23:56:57;101748.34;;;0.81;100.00
1480;BME280;732;51.698;4.886;2023-02-23T23:59:27;101762.97;;;0.96;100.00
